aviador You're here:

KHWD Decoded Metar

HAYWARD in CA, USA
Report Time2018-07-20 15:54:00
UTC Time2018-07-20 16:43:57
Flight Rules vfr VFR
WindVRB at 03 kt
Visibility9999 m
Phenomena:N/A
Clouds:Scattered 007 Hf
Expected CloudBase > 1,600 ft AGL from Temp-Dew spread
CeilingNone
Temp18°C (ISA +3)
Dew Point14°C (78% RH)
QNH1013 hPa
Density Alt650 ft
Elevation69 ft
Report Wrong Elevation
Raw Report
KHWD 201554Z VRB03KT 9SM SCT007 18/14 A2992 RMK AO2 SLP141
T01780139=

Extra information for KHWD:More info

Metar Taf Metar & Taf Last 4 Metars F.Rules Stats Wind Profile Meteogram Temp Stats Airport Information Weather charts Add Link Nearby VenuesMetar ALERT Operation Metar Decoded Social comments

AIRNAV info for KHWD